Fort Kent Mills, Maine
Current Conditions -  °F | °C
As of 2:15 AM on Sunday 23 Nov 2014 (Local Time) from KFVE Reporting Station
Overcast Overcast  
Wind Chill: 22°   Ceiling: 1300
Heat Index: 29°   Visibility: 10mi
Dew Point: 25°   Wind: 7mph
Humidity: 85%   Direction: 250°WSW
Pressure: 29.75"   Gusts: NA
Location:  47.24°N, 68.58°W
Report Text: KFVE 230715Z AUTO 25006KT 10SM BKN013 OVC033 M02/M04 A2975 RMK AO2 T10171039
Loading
Personal Weather Stations






























Interactive Weather Map New forecast layout! Learn more

10-Day Weather Forecast

Advertisements
Track Severe Weather on mobile